createdAt,value
2022-10-11T00:01:23.334Z,1.42
2022-10-11T00:06:40.846Z,1.30
2022-10-11T00:11:55.246Z,1.10
2022-10-11T00:17:11.473Z,0.95
2022-10-11T00:22:29.531Z,1.35
2022-10-11T00:27:44.749Z,1.33
2022-10-11T00:32:58.775Z,1.10
2022-10-11T00:38:16.573Z,1.42
2022-10-11T00:43:32.372Z,1.10
2022-10-11T00:48:50.350Z,1.15
2022-10-11T00:54:09.881Z,1.40
2022-10-11T00:59:22.248Z,1.40
2022-10-11T01:04:35.945Z,1.30
2022-10-11T01:09:53.795Z,1.40
2022-10-11T01:15:15.113Z,1.10
2022-10-11T01:20:47.056Z,1.70
2022-10-11T01:26:21.003Z,1.40
2022-10-11T01:31:44.515Z,1.20
2022-10-11T01:37:02.764Z,1.50
2022-10-11T01:42:18.091Z,2.05
2022-10-11T01:47:35.844Z,1.33
2022-10-11T01:52:53.525Z,11.10
2022-10-11T01:58:22.468Z,8.75
2022-10-11T02:03:47.148Z,7.05
2022-10-11T02:09:08.324Z,2.65
2022-10-11T02:28:39.686Z,1.33
2022-10-11T02:33:58.059Z,1.20
2022-10-11T02:39:15.215Z,1.38
2022-10-11T02:44:35.011Z,1.45
2022-10-11T02:49:48.698Z,1.38
2022-10-11T02:55:02.846Z,1.80
2022-10-11T03:00:21.646Z,1.65
2022-10-11T03:05:39.973Z,1.60
2022-10-11T03:10:52.961Z,1.75
2022-10-11T03:16:11.048Z,2.38
2022-10-11T03:21:24.492Z,2.22
2022-10-11T03:32:05.081Z,2.28
2022-10-11T03:37:19.060Z,2.00
2022-10-11T03:42:36.233Z,2.33
2022-10-11T03:47:53.197Z,2.47
2022-10-11T03:53:06.808Z,2.22
2022-10-11T03:58:21.099Z,2.47
2022-10-11T04:03:38.115Z,2.97
2022-10-11T04:08:52.572Z,2.50
2022-10-11T04:14:05.970Z,2.45
2022-10-11T04:19:23.651Z,1.98
2022-10-11T04:24:39.249Z,1.98
2022-10-11T04:29:53.602Z,2.00
2022-10-11T04:35:11.610Z,1.70
2022-10-11T04:40:26.677Z,2.65
2022-10-11T04:45:40.795Z,1.58
2022-10-11T04:50:58.544Z,1.70
2022-10-11T04:56:14.273Z,1.60
2022-10-11T05:01:27.142Z,1.38
2022-10-11T05:06:44.890Z,1.50
2022-10-11T05:11:58.052Z,2.17
2022-10-11T05:17:11.713Z,1.63
2022-10-11T05:22:28.504Z,1.60
2022-10-11T05:27:41.780Z,1.35
2022-10-11T05:32:54.403Z,1.63
2022-10-11T05:38:12.158Z,1.40
2022-10-11T05:43:28.900Z,1.83
2022-10-11T05:48:42.813Z,1.35
2022-10-11T05:54:00.602Z,1.20
2022-10-11T05:59:14.948Z,1.10
2022-10-11T06:04:28.122Z,1.20
2022-10-11T06:09:46.867Z,1.60
2022-10-11T06:15:00.474Z,1.50
2022-10-11T06:20:15.725Z,1.10
2022-10-11T06:25:33.254Z,1.00
2022-10-11T06:30:47.766Z,0.90
2022-10-11T06:36:07.893Z,1.00
2022-10-11T06:41:27.931Z,0.82
2022-10-11T06:46:42.931Z,1.00
2022-10-11T06:51:57.550Z,1.00
2022-10-11T06:57:15.361Z,0.82
2022-10-11T07:02:29.307Z,0.70
2022-10-11T07:07:43.246Z,0.80
2022-10-11T07:13:00.476Z,1.50
2022-10-11T07:18:14.681Z,1.10
2022-10-11T07:23:28.738Z,1.10
2022-10-11T07:28:46.741Z,0.90
2022-10-11T07:34:00.936Z,1.00
2022-10-11T07:39:16.430Z,1.30
2022-10-11T07:44:34.616Z,0.90
2022-10-11T07:49:48.950Z,0.90
2022-10-11T07:55:02.797Z,1.50
2022-10-11T08:00:23.645Z,1.10
2022-10-11T08:05:37.100Z,0.70
2022-10-11T08:10:50.899Z,0.80
2022-10-11T08:16:09.498Z,2.50
2022-10-11T08:21:29.298Z,1.17
2022-10-11T08:26:43.311Z,2.30
2022-10-11T08:32:00.516Z,1.35
2022-10-11T08:37:14.785Z,0.98
2022-10-11T08:42:36.770Z,0.82
2022-10-11T08:47:54.074Z,0.88
2022-10-11T08:53:12.312Z,1.00
2022-10-11T08:58:28.736Z,0.70
2022-10-11T09:03:52.912Z,1.25
2022-10-11T09:09:24.555Z,0.65
2022-10-11T09:14:58.786Z,0.70
2022-10-11T09:20:48.015Z,0.60
2022-10-11T09:26:06.762Z,0.82
2022-10-11T09:31:20.957Z,0.77
2022-10-11T09:36:42.828Z,0.70
2022-10-11T09:42:00.584Z,0.90
2022-10-11T09:47:15.259Z,1.00
2022-10-11T09:52:32.373Z,0.77
2022-10-11T09:57:51.113Z,0.98
2022-10-11T10:03:09.069Z,0.60
2022-10-11T10:08:35.735Z,0.60
2022-10-11T10:13:54.085Z,0.70
2022-10-11T10:19:10.297Z,0.40
2022-10-11T10:24:38.710Z,0.60
2022-10-11T10:30:07.239Z,0.63
2022-10-11T10:35:33.927Z,0.70
2022-10-11T10:40:55.250Z,1.10
2022-10-11T10:46:27.006Z,1.25
2022-10-11T10:51:53.565Z,0.50
2022-10-11T10:57:18.180Z,0.60
2022-10-11T11:02:40.865Z,0.65
2022-10-11T11:07:59.623Z,0.57
2022-10-11T11:13:31.226Z,0.50
2022-10-11T11:18:49.410Z,0.40
2022-10-11T11:24:14.764Z,0.52
2022-10-11T11:29:55.491Z,0.68
2022-10-11T11:35:12.517Z,0.80
2022-10-11T11:40:29.905Z,0.77
2022-10-11T11:45:53.919Z,0.60
2022-10-11T11:51:11.098Z,0.90
2022-10-11T11:56:35.672Z,0.80
2022-10-11T12:02:00.408Z,1.30
2022-10-11T12:07:17.529Z,0.90
2022-10-11T12:12:41.046Z,1.20
2022-10-11T12:18:20.284Z,1.00
2022-10-11T12:23:57.113Z,0.98
2022-10-11T12:29:41.934Z,0.88
2022-10-11T12:35:02.711Z,0.80
2022-10-11T12:40:49.751Z,1.02
2022-10-11T12:46:04.855Z,0.90
2022-10-11T12:51:42.655Z,1.00
2022-10-11T12:57:03.377Z,0.90
2022-10-11T13:02:32.708Z,0.82
2022-10-11T13:07:51.114Z,0.88
2022-10-11T13:13:07.897Z,1.15
2022-10-11T13:18:24.417Z,0.90
2022-10-11T13:23:47.284Z,0.85
2022-10-11T13:28:57.876Z,0.67
2022-10-11T13:34:08.406Z,0.80
2022-10-11T13:39:34.107Z,0.90
2022-10-11T13:44:43.719Z,0.80
2022-10-11T13:49:55.997Z,0.93
2022-10-11T13:55:23.883Z,1.13
2022-10-11T14:00:36.334Z,0.85
2022-10-11T14:10:57.953Z,0.90
2022-10-11T14:16:10.514Z,0.70
2022-10-11T14:21:33.040Z,0.60
2022-10-11T14:26:45.041Z,0.73
2022-10-11T14:31:53.455Z,0.82
2022-10-11T14:37:02.511Z,0.73
2022-10-11T14:42:13.829Z,0.80
2022-10-11T14:47:23.254Z,0.80
2022-10-11T14:52:31.206Z,1.00
2022-10-11T14:57:42.420Z,0.70
2022-10-11T15:02:51.728Z,0.68
2022-10-11T15:07:59.954Z,0.63
2022-10-11T15:13:12.245Z,0.90
2022-10-11T15:18:22.087Z,1.20
2022-10-11T15:23:30.278Z,0.82
2022-10-11T15:28:41.183Z,1.40
2022-10-11T15:33:49.247Z,0.98
2022-10-11T15:38:57.645Z,0.93
2022-10-11T15:44:08.783Z,0.80
2022-10-11T15:49:18.544Z,0.90
2022-10-11T15:54:28.081Z,1.10
2022-10-11T15:59:40.736Z,0.90
2022-10-11T16:04:49.542Z,0.68
2022-10-11T16:09:58.898Z,0.70
2022-10-11T16:15:11.815Z,1.00
2022-10-11T16:20:23.969Z,1.07
2022-10-11T16:25:33.956Z,1.15
2022-10-11T16:30:47.642Z,0.90
2022-10-11T16:36:16.674Z,0.70
2022-10-11T16:41:25.504Z,0.93
2022-10-11T16:46:36.636Z,0.68
2022-10-11T16:51:45.132Z,1.42
2022-10-11T16:56:53.263Z,0.85
2022-10-11T17:02:06.441Z,0.88
2022-10-11T17:07:16.248Z,0.90
2022-10-11T17:12:27.107Z,1.10
2022-10-11T17:17:40.229Z,1.35
2022-10-11T17:27:54.780Z,2.05
2022-10-11T17:33:05.220Z,0.98
2022-10-11T17:38:13.393Z,1.10
2022-10-11T17:43:20.871Z,0.80
2022-10-11T17:48:32.440Z,1.10
2022-10-11T17:53:40.180Z,0.80
2022-10-11T17:58:48.477Z,0.93
2022-10-11T18:04:00.990Z,1.00
2022-10-11T18:09:10.000Z,1.00
2022-10-11T18:14:20.383Z,0.70
2022-10-11T18:19:31.206Z,1.08
2022-10-11T18:24:40.846Z,0.90
2022-10-11T18:29:49.544Z,0.80
2022-10-11T18:35:01.331Z,0.90
2022-10-11T18:40:12.677Z,1.40
2022-10-11T18:45:22.009Z,0.90
2022-10-11T18:50:35.861Z,0.80
2022-10-11T18:55:46.382Z,1.00
2022-10-11T19:00:55.280Z,1.08
2022-10-11T19:06:08.455Z,1.13
2022-10-11T19:11:19.045Z,0.80
2022-10-11T19:16:27.556Z,1.10
2022-10-11T19:21:38.651Z,1.00
2022-10-11T19:26:48.046Z,1.00
2022-10-11T19:31:57.323Z,0.77
2022-10-11T19:37:08.640Z,0.70
2022-10-11T19:42:16.741Z,0.98
2022-10-11T19:47:24.132Z,1.15
2022-10-11T19:52:34.979Z,0.90
2022-10-11T19:57:43.657Z,0.90
2022-10-11T20:02:52.210Z,1.20
2022-10-11T20:08:03.011Z,0.77
2022-10-11T20:13:13.113Z,1.00
2022-10-11T20:18:31.029Z,0.82
2022-10-11T20:23:43.424Z,0.93
2022-10-11T20:28:56.067Z,1.20
2022-10-11T20:34:08.052Z,0.90
2022-10-11T20:39:18.820Z,0.60
2022-10-11T20:44:27.082Z,0.60
2022-10-11T20:49:35.084Z,0.80
2022-10-11T20:54:46.254Z,0.93
2022-10-11T20:59:54.968Z,0.57
2022-10-11T21:05:03.500Z,0.70
2022-10-11T21:10:15.263Z,0.60
2022-10-11T21:15:24.074Z,0.77
2022-10-11T21:20:33.110Z,0.70
2022-10-11T21:25:44.437Z,0.70
2022-10-11T21:30:53.718Z,0.80
2022-10-11T21:36:02.726Z,0.60
2022-10-11T21:41:16.570Z,0.70
2022-10-11T21:46:47.527Z,0.70
2022-10-11T21:51:56.549Z,0.90
2022-10-11T21:57:07.618Z,0.80
2022-10-11T22:02:16.233Z,0.50
2022-10-11T22:07:24.959Z,0.60
2022-10-11T22:12:36.936Z,0.50
2022-10-11T22:17:46.867Z,0.47
2022-10-11T22:22:55.954Z,0.68
2022-10-11T22:28:08.101Z,0.57
2022-10-11T22:33:18.366Z,0.60
2022-10-11T22:38:26.769Z,0.60
2022-10-11T22:43:39.773Z,0.60
2022-10-11T22:48:48.318Z,0.60
2022-10-11T22:53:57.209Z,0.45
2022-10-11T22:59:07.541Z,0.40
2022-10-11T23:04:17.041Z,0.60
2022-10-11T23:09:28.190Z,0.40
2022-10-11T23:14:40.017Z,0.40
2022-10-11T23:19:48.603Z,0.40
2022-10-11T23:24:57.328Z,0.70
2022-10-11T23:30:09.297Z,0.40
2022-10-11T23:35:17.612Z,0.40
2022-10-11T23:40:26.655Z,0.45
2022-10-11T23:45:38.826Z,0.30
2022-10-11T23:50:48.484Z,0.20
2022-10-11T23:55:56.765Z,0.25
